sensor_id;sensor_type;location;lat;lon;timestamp;P1;durP1;ratioP1;P2;durP2;ratioP2
71790;SDS011;59638;52.126;5.434;2023-04-19T00:01:38;4.95;;;3.70;;
71790;SDS011;59638;52.126;5.434;2023-04-19T00:04:04;6.37;;;2.87;;
71790;SDS011;59638;52.126;5.434;2023-04-19T00:06:31;1.98;;;1.25;;
71790;SDS011;59638;52.126;5.434;2023-04-19T00:08:57;3.70;;;3.22;;
71790;SDS011;59638;52.126;5.434;2023-04-19T00:11:24;8.43;;;3.20;;
71790;SDS011;59638;52.126;5.434;2023-04-19T00:13:50;4.15;;;3.20;;
71790;SDS011;59638;52.126;5.434;2023-04-19T00:16:17;3.90;;;2.97;;
71790;SDS011;59638;52.126;5.434;2023-04-19T00:18:43;5.22;;;2.88;;
71790;SDS011;59638;52.126;5.434;2023-04-19T00:21:09;7.65;;;3.00;;
71790;SDS011;59638;52.126;5.434;2023-04-19T00:23:36;4.10;;;1.95;;
71790;SDS011;59638;52.126;5.434;2023-04-19T00:26:03;4.65;;;2.90;;
71790;SDS011;59638;52.126;5.434;2023-04-19T00:28:29;5.87;;;3.23;;
71790;SDS011;59638;52.126;5.434;2023-04-19T00:30:56;4.43;;;3.15;;
71790;SDS011;59638;52.126;5.434;2023-04-19T00:33:22;4.72;;;3.17;;
71790;SDS011;59638;52.126;5.434;2023-04-19T00:35:49;4.35;;;2.22;;
71790;SDS011;59638;52.126;5.434;2023-04-19T00:38:15;4.78;;;2.90;;
71790;SDS011;59638;52.126;5.434;2023-04-19T00:40:42;5.43;;;3.90;;
71790;SDS011;59638;52.126;5.434;2023-04-19T00:43:08;4.03;;;2.75;;
71790;SDS011;59638;52.126;5.434;2023-04-19T00:45:34;4.35;;;3.63;;
71790;SDS011;59638;52.126;5.434;2023-04-19T00:48:02;3.47;;;2.33;;
71790;SDS011;59638;52.126;5.434;2023-04-19T00:50:28;5.65;;;2.33;;
71790;SDS011;59638;52.126;5.434;2023-04-19T00:52:55;3.13;;;1.60;;
71790;SDS011;59638;52.126;5.434;2023-04-19T00:55:22;3.97;;;3.30;;
71790;SDS011;59638;52.126;5.434;2023-04-19T00:57:49;4.45;;;4.05;;
71790;SDS011;59638;52.126;5.434;2023-04-19T01:00:17;3.75;;;2.75;;
71790;SDS011;59638;52.126;5.434;2023-04-19T01:02:45;3.88;;;2.50;;
71790;SDS011;59638;52.126;5.434;2023-04-19T01:05:13;3.10;;;1.20;;
71790;SDS011;59638;52.126;5.434;2023-04-19T01:07:39;4.32;;;2.88;;
71790;SDS011;59638;52.126;5.434;2023-04-19T01:10:06;5.93;;;3.00;;
71790;SDS011;59638;52.126;5.434;2023-04-19T01:12:32;4.47;;;2.75;;
71790;SDS011;59638;52.126;5.434;2023-04-19T01:14:59;5.85;;;3.30;;
71790;SDS011;59638;52.126;5.434;2023-04-19T01:17:26;7.10;;;3.67;;
71790;SDS011;59638;52.126;5.434;2023-04-19T01:19:58;6.30;;;3.85;;
71790;SDS011;59638;52.126;5.434;2023-04-19T01:22:26;9.27;;;3.53;;
71790;SDS011;59638;52.126;5.434;2023-04-19T01:24:53;5.22;;;2.83;;
71790;SDS011;59638;52.126;5.434;2023-04-19T01:27:19;6.63;;;2.92;;
71790;SDS011;59638;52.126;5.434;2023-04-19T01:29:46;7.10;;;4.00;;
71790;SDS011;59638;52.126;5.434;2023-04-19T01:32:12;8.10;;;4.18;;
71790;SDS011;59638;52.126;5.434;2023-04-19T01:34:39;3.40;;;2.53;;
71790;SDS011;59638;52.126;5.434;2023-04-19T01:37:05;7.90;;;3.90;;
71790;SDS011;59638;52.126;5.434;2023-04-19T01:39:32;4.93;;;3.75;;
71790;SDS011;59638;52.126;5.434;2023-04-19T01:41:58;5.03;;;3.97;;
71790;SDS011;59638;52.126;5.434;2023-04-19T01:44:24;5.47;;;3.35;;
71790;SDS011;59638;52.126;5.434;2023-04-19T01:46:52;4.55;;;2.97;;
71790;SDS011;59638;52.126;5.434;2023-04-19T01:49:18;5.28;;;3.85;;
71790;SDS011;59638;52.126;5.434;2023-04-19T01:51:45;5.85;;;3.65;;
71790;SDS011;59638;52.126;5.434;2023-04-19T01:54:11;5.73;;;4.07;;
71790;SDS011;59638;52.126;5.434;2023-04-19T01:56:38;7.82;;;4.13;;
71790;SDS011;59638;52.126;5.434;2023-04-19T01:59:04;5.82;;;3.88;;
71790;SDS011;59638;52.126;5.434;2023-04-19T02:01:31;4.75;;;4.13;;
71790;SDS011;59638;52.126;5.434;2023-04-19T02:03:57;6.28;;;3.55;;
71790;SDS011;59638;52.126;5.434;2023-04-19T02:06:24;7.83;;;4.33;;
71790;SDS011;59638;52.126;5.434;2023-04-19T02:08:52;7.47;;;4.90;;
71790;SDS011;59638;52.126;5.434;2023-04-19T02:11:18;6.05;;;3.92;;
71790;SDS011;59638;52.126;5.434;2023-04-19T02:13:44;5.00;;;4.15;;
71790;SDS011;59638;52.126;5.434;2023-04-19T02:16:11;4.97;;;3.20;;
71790;SDS011;59638;52.126;5.434;2023-04-19T02:18:37;6.23;;;4.03;;
71790;SDS011;59638;52.126;5.434;2023-04-19T02:21:05;5.00;;;3.65;;
71790;SDS011;59638;52.126;5.434;2023-04-19T02:23:34;5.75;;;3.90;;
71790;SDS011;59638;52.126;5.434;2023-04-19T02:26:00;4.82;;;3.38;;
71790;SDS011;59638;52.126;5.434;2023-04-19T02:28:30;6.47;;;3.80;;
71790;SDS011;59638;52.126;5.434;2023-04-19T02:30:57;5.40;;;3.83;;
71790;SDS011;59638;52.126;5.434;2023-04-19T02:33:25;5.82;;;3.78;;
71790;SDS011;59638;52.126;5.434;2023-04-19T02:35:52;5.47;;;4.20;;
71790;SDS011;59638;52.126;5.434;2023-04-19T02:38:18;6.43;;;4.20;;
71790;SDS011;59638;52.126;5.434;2023-04-19T02:40:44;5.72;;;4.03;;
71790;SDS011;59638;52.126;5.434;2023-04-19T02:43:11;5.37;;;1.83;;
71790;SDS011;59638;52.126;5.434;2023-04-19T02:45:37;11.07;;;4.00;;
71790;SDS011;59638;52.126;5.434;2023-04-19T02:48:04;5.32;;;3.58;;
71790;SDS011;59638;52.126;5.434;2023-04-19T02:50:31;3.53;;;1.45;;
71790;SDS011;59638;52.126;5.434;2023-04-19T02:52:57;5.70;;;3.67;;
71790;SDS011;59638;52.126;5.434;2023-04-19T02:55:24;5.87;;;3.83;;
71790;SDS011;59638;52.126;5.434;2023-04-19T02:57:50;4.72;;;1.83;;
71790;SDS011;59638;52.126;5.434;2023-04-19T03:00:17;4.63;;;3.15;;
71790;SDS011;59638;52.126;5.434;2023-04-19T03:02:43;3.80;;;2.88;;
71790;SDS011;59638;52.126;5.434;2023-04-19T03:05:10;7.15;;;4.00;;
71790;SDS011;59638;52.126;5.434;2023-04-19T03:07:36;4.13;;;2.73;;
71790;SDS011;59638;52.126;5.434;2023-04-19T03:10:03;6.82;;;2.63;;
71790;SDS011;59638;52.126;5.434;2023-04-19T03:12:29;4.00;;;2.92;;
71790;SDS011;59638;52.126;5.434;2023-04-19T03:14:56;4.32;;;3.47;;
71790;SDS011;59638;52.126;5.434;2023-04-19T03:17:22;3.63;;;2.40;;
71790;SDS011;59638;52.126;5.434;2023-04-19T03:19:49;4.33;;;2.17;;
71790;SDS011;59638;52.126;5.434;2023-04-19T03:22:15;2.63;;;1.75;;
71790;SDS011;59638;52.126;5.434;2023-04-19T03:24:41;6.18;;;3.90;;
71790;SDS011;59638;52.126;5.434;2023-04-19T03:27:08;3.53;;;1.88;;
71790;SDS011;59638;52.126;5.434;2023-04-19T03:29:34;3.50;;;2.25;;
71790;SDS011;59638;52.126;5.434;2023-04-19T03:32:01;5.23;;;3.60;;
71790;SDS011;59638;52.126;5.434;2023-04-19T03:34:27;3.13;;;2.72;;
71790;SDS011;59638;52.126;5.434;2023-04-19T03:36:53;4.80;;;3.20;;
71790;SDS011;59638;52.126;5.434;2023-04-19T03:39:20;3.35;;;2.45;;
71790;SDS011;59638;52.126;5.434;2023-04-19T03:41:46;6.55;;;4.05;;
71790;SDS011;59638;52.126;5.434;2023-04-19T03:44:13;5.30;;;3.87;;
71790;SDS011;59638;52.126;5.434;2023-04-19T03:46:39;5.53;;;3.78;;
71790;SDS011;59638;52.126;5.434;2023-04-19T03:49:06;6.45;;;2.55;;
71790;SDS011;59638;52.126;5.434;2023-04-19T03:51:32;4.68;;;3.55;;
71790;SDS011;59638;52.126;5.434;2023-04-19T03:53:59;6.65;;;3.58;;
71790;SDS011;59638;52.126;5.434;2023-04-19T03:56:25;3.00;;;1.33;;
71790;SDS011;59638;52.126;5.434;2023-04-19T03:58:52;6.80;;;3.45;;
71790;SDS011;59638;52.126;5.434;2023-04-19T04:01:19;3.72;;;3.13;;
71790;SDS011;59638;52.126;5.434;2023-04-19T04:03:46;3.58;;;2.33;;
71790;SDS011;59638;52.126;5.434;2023-04-19T04:06:14;5.95;;;3.70;;
71790;SDS011;59638;52.126;5.434;2023-04-19T04:08:40;4.27;;;3.23;;
71790;SDS011;59638;52.126;5.434;2023-04-19T04:11:06;4.38;;;2.42;;
71790;SDS011;59638;52.126;5.434;2023-04-19T04:13:33;3.20;;;1.92;;
71790;SDS011;59638;52.126;5.434;2023-04-19T04:15:59;4.68;;;2.78;;
71790;SDS011;59638;52.126;5.434;2023-04-19T04:18:26;4.43;;;3.42;;
71790;SDS011;59638;52.126;5.434;2023-04-19T04:20:53;2.50;;;1.77;;
71790;SDS011;59638;52.126;5.434;2023-04-19T04:23:20;5.43;;;2.90;;
71790;SDS011;59638;52.126;5.434;2023-04-19T04:25:46;3.83;;;3.30;;
71790;SDS011;59638;52.126;5.434;2023-04-19T04:28:13;6.45;;;1.98;;
71790;SDS011;59638;52.126;5.434;2023-04-19T04:30:39;4.80;;;2.83;;
71790;SDS011;59638;52.126;5.434;2023-04-19T04:33:06;4.07;;;3.13;;
71790;SDS011;59638;52.126;5.434;2023-04-19T04:35:33;6.43;;;3.13;;
71790;SDS011;59638;52.126;5.434;2023-04-19T04:38:00;5.13;;;3.10;;
71790;SDS011;59638;52.126;5.434;2023-04-19T04:40:42;2.38;;;1.52;;
71790;SDS011;59638;52.126;5.434;2023-04-19T04:43:09;2.75;;;1.55;;
71790;SDS011;59638;52.126;5.434;2023-04-19T04:45:36;5.33;;;3.00;;
71790;SDS011;59638;52.126;5.434;2023-04-19T04:48:02;6.60;;;2.80;;
71790;SDS011;59638;52.126;5.434;2023-04-19T04:50:29;3.60;;;2.58;;
71790;SDS011;59638;52.126;5.434;2023-04-19T04:52:55;4.28;;;2.92;;
71790;SDS011;59638;52.126;5.434;2023-04-19T04:55:22;3.55;;;1.95;;
71790;SDS011;59638;52.126;5.434;2023-04-19T04:57:48;1.30;;;1.20;;
71790;SDS011;59638;52.126;5.434;2023-04-19T05:00:15;3.33;;;2.90;;
71790;SDS011;59638;52.126;5.434;2023-04-19T05:02:42;4.38;;;1.98;;
71790;SDS011;59638;52.126;5.434;2023-04-19T05:05:09;2.40;;;1.48;;
71790;SDS011;59638;52.126;5.434;2023-04-19T05:07:36;4.03;;;2.28;;
71790;SDS011;59638;52.126;5.434;2023-04-19T05:10:03;1.97;;;1.20;;
71790;SDS011;59638;52.126;5.434;2023-04-19T05:12:29;3.45;;;1.38;;
71790;SDS011;59638;52.126;5.434;2023-04-19T05:14:56;3.70;;;1.50;;
71790;SDS011;59638;52.126;5.434;2023-04-19T05:17:22;5.40;;;2.95;;
71790;SDS011;59638;52.126;5.434;2023-04-19T05:19:49;2.05;;;1.33;;
71790;SDS011;59638;52.126;5.434;2023-04-19T05:22:16;2.43;;;1.57;;
71790;SDS011;59638;52.126;5.434;2023-04-19T05:24:42;3.75;;;2.17;;
71790;SDS011;59638;52.126;5.434;2023-04-19T05:27:08;2.28;;;1.25;;
71790;SDS011;59638;52.126;5.434;2023-04-19T05:29:36;1.70;;;0.68;;
71790;SDS011;59638;52.126;5.434;2023-04-19T05:32:02;3.92;;;1.33;;
71790;SDS011;59638;52.126;5.434;2023-04-19T05:34:29;3.20;;;2.43;;
71790;SDS011;59638;52.126;5.434;2023-04-19T05:36:55;5.85;;;2.45;;
71790;SDS011;59638;52.126;5.434;2023-04-19T05:39:22;5.68;;;2.65;;
71790;SDS011;59638;52.126;5.434;2023-04-19T05:41:48;3.45;;;1.88;;
71790;SDS011;59638;52.126;5.434;2023-04-19T05:44:14;6.28;;;2.28;;
71790;SDS011;59638;52.126;5.434;2023-04-19T05:46:41;4.83;;;1.33;;
71790;SDS011;59638;52.126;5.434;2023-04-19T05:49:08;1.88;;;0.95;;
71790;SDS011;59638;52.126;5.434;2023-04-19T05:51:34;2.90;;;1.73;;
71790;SDS011;59638;52.126;5.434;2023-04-19T05:54:00;3.72;;;1.95;;
71790;SDS011;59638;52.126;5.434;2023-04-19T05:56:27;1.33;;;1.02;;
71790;SDS011;59638;52.126;5.434;2023-04-19T05:58:54;2.63;;;1.60;;
71790;SDS011;59638;52.126;5.434;2023-04-19T06:01:25;5.35;;;2.20;;
71790;SDS011;59638;52.126;5.434;2023-04-19T06:03:52;4.13;;;2.53;;
71790;SDS011;59638;52.126;5.434;2023-04-19T06:06:21;3.70;;;2.25;;
71790;SDS011;59638;52.126;5.434;2023-04-19T06:08:48;3.47;;;1.80;;
71790;SDS011;59638;52.126;5.434;2023-04-19T06:11:19;2.50;;;2.00;;
71790;SDS011;59638;52.126;5.434;2023-04-19T06:14:00;2.70;;;1.27;;
71790;SDS011;59638;52.126;5.434;2023-04-19T06:16:26;2.38;;;0.98;;
71790;SDS011;59638;52.126;5.434;2023-04-19T06:18:53;4.40;;;1.75;;
71790;SDS011;59638;52.126;5.434;2023-04-19T06:21:19;2.47;;;1.10;;
71790;SDS011;59638;52.126;5.434;2023-04-19T06:23:45;2.30;;;1.13;;
71790;SDS011;59638;52.126;5.434;2023-04-19T06:26:12;1.85;;;1.08;;
71790;SDS011;59638;52.126;5.434;2023-04-19T06:28:38;1.30;;;1.20;;
71790;SDS011;59638;52.126;5.434;2023-04-19T06:31:04;3.03;;;1.40;;
71790;SDS011;59638;52.126;5.434;2023-04-19T06:33:31;2.17;;;1.27;;
71790;SDS011;59638;52.126;5.434;2023-04-19T06:35:57;3.13;;;1.23;;
71790;SDS011;59638;52.126;5.434;2023-04-19T06:38:24;5.40;;;2.03;;
71790;SDS011;59638;52.126;5.434;2023-04-19T06:40:50;1.98;;;1.10;;
71790;SDS011;59638;52.126;5.434;2023-04-19T06:43:16;3.28;;;1.25;;
71790;SDS011;59638;52.126;5.434;2023-04-19T06:45:43;2.53;;;0.90;;
71790;SDS011;59638;52.126;5.434;2023-04-19T06:48:09;3.67;;;1.13;;
71790;SDS011;59638;52.126;5.434;2023-04-19T06:50:36;4.03;;;1.30;;
71790;SDS011;59638;52.126;5.434;2023-04-19T06:53:03;1.90;;;0.90;;
71790;SDS011;59638;52.126;5.434;2023-04-19T06:55:30;2.50;;;1.25;;
71790;SDS011;59638;52.126;5.434;2023-04-19T06:57:56;1.80;;;0.57;;
71790;SDS011;59638;52.126;5.434;2023-04-19T07:00:23;3.07;;;1.13;;
71790;SDS011;59638;52.126;5.434;2023-04-19T07:02:50;1.20;;;0.52;;
71790;SDS011;59638;52.126;5.434;2023-04-19T07:05:17;3.15;;;1.40;;
71790;SDS011;59638;52.126;5.434;2023-04-19T07:07:43;2.28;;;0.80;;
71790;SDS011;59638;52.126;5.434;2023-04-19T07:10:10;2.83;;;0.95;;
71790;SDS011;59638;52.126;5.434;2023-04-19T07:12:37;2.07;;;0.60;;
71790;SDS011;59638;52.126;5.434;2023-04-19T07:15:04;2.50;;;1.20;;
71790;SDS011;59638;52.126;5.434;2023-04-19T07:17:32;4.43;;;1.33;;
71790;SDS011;59638;52.126;5.434;2023-04-19T07:20:00;2.50;;;1.67;;
71790;SDS011;59638;52.126;5.434;2023-04-19T07:22:26;5.00;;;1.23;;
71790;SDS011;59638;52.126;5.434;2023-04-19T07:24:52;1.27;;;0.43;;
71790;SDS011;59638;52.126;5.434;2023-04-19T07:27:19;3.00;;;0.85;;
71790;SDS011;59638;52.126;5.434;2023-04-19T07:29:45;1.13;;;0.45;;
71790;SDS011;59638;52.126;5.434;2023-04-19T07:32:12;1.23;;;0.52;;
71790;SDS011;59638;52.126;5.434;2023-04-19T07:34:41;1.63;;;0.35;;
71790;SDS011;59638;52.126;5.434;2023-04-19T07:37:08;1.50;;;0.43;;
71790;SDS011;59638;52.126;5.434;2023-04-19T07:39:35;5.70;;;0.40;;
71790;SDS011;59638;52.126;5.434;2023-04-19T07:42:02;3.15;;;0.55;;
71790;SDS011;59638;52.126;5.434;2023-04-19T07:44:28;5.90;;;0.77;;
71790;SDS011;59638;52.126;5.434;2023-04-19T07:46:54;1.17;;;0.52;;
71790;SDS011;59638;52.126;5.434;2023-04-19T07:49:21;1.10;;;0.57;;
71790;SDS011;59638;52.126;5.434;2023-04-19T07:51:47;0.93;;;0.40;;
71790;SDS011;59638;52.126;5.434;2023-04-19T07:54:14;0.80;;;0.60;;
71790;SDS011;59638;52.126;5.434;2023-04-19T07:56:45;1.50;;;0.40;;
71790;SDS011;59638;52.126;5.434;2023-04-19T07:59:12;3.65;;;0.80;;
71790;SDS011;59638;52.126;5.434;2023-04-19T08:01:38;0.97;;;0.27;;
71790;SDS011;59638;52.126;5.434;2023-04-19T08:04:05;0.80;;;0.43;;
71790;SDS011;59638;52.126;5.434;2023-04-19T08:06:32;2.67;;;1.23;;
71790;SDS011;59638;52.126;5.434;2023-04-19T08:08:58;3.10;;;0.68;;
71790;SDS011;59638;52.126;5.434;2023-04-19T08:11:25;1.23;;;0.50;;
71790;SDS011;59638;52.126;5.434;2023-04-19T08:13:51;1.20;;;0.40;;
71790;SDS011;59638;52.126;5.434;2023-04-19T08:16:38;2.08;;;0.50;;
71790;SDS011;59638;52.126;5.434;2023-04-19T08:19:07;2.20;;;0.50;;
71790;SDS011;59638;52.126;5.434;2023-04-19T08:21:33;3.70;;;0.50;;
71790;SDS011;59638;52.126;5.434;2023-04-19T08:24:06;3.67;;;0.70;;
71790;SDS011;59638;52.126;5.434;2023-04-19T08:26:33;2.13;;;0.63;;
71790;SDS011;59638;52.126;5.434;2023-04-19T08:29:00;0.68;;;0.20;;
71790;SDS011;59638;52.126;5.434;2023-04-19T08:31:26;0.98;;;0.40;;
71790;SDS011;59638;52.126;5.434;2023-04-19T08:33:53;6.10;;;0.70;;
71790;SDS011;59638;52.126;5.434;2023-04-19T08:36:19;1.30;;;0.40;;
71790;SDS011;59638;52.126;5.434;2023-04-19T08:39:00;0.80;;;0.30;;
71790;SDS011;59638;52.126;5.434;2023-04-19T08:41:33;1.55;;;0.38;;
71790;SDS011;59638;52.126;5.434;2023-04-19T08:43:59;0.82;;;0.30;;
71790;SDS011;59638;52.126;5.434;2023-04-19T08:46:28;1.02;;;0.30;;
71790;SDS011;59638;52.126;5.434;2023-04-19T08:48:56;1.45;;;0.40;;
71790;SDS011;59638;52.126;5.434;2023-04-19T08:51:24;1.10;;;0.20;;
71790;SDS011;59638;52.126;5.434;2023-04-19T08:53:52;0.85;;;0.43;;
71790;SDS011;59638;52.126;5.434;2023-04-19T08:56:21;7.28;;;0.40;;
71790;SDS011;59638;52.126;5.434;2023-04-19T08:58:49;0.60;;;0.15;;
71790;SDS011;59638;52.126;5.434;2023-04-19T09:01:35;2.33;;;0.22;;
71790;SDS011;59638;52.126;5.434;2023-04-19T09:04:02;1.33;;;0.53;;
71790;SDS011;59638;52.126;5.434;2023-04-19T09:06:51;1.13;;;0.20;;
71790;SDS011;59638;52.126;5.434;2023-04-19T09:09:19;0.80;;;0.20;;
71790;SDS011;59638;52.126;5.434;2023-04-19T09:11:50;1.27;;;0.20;;
71790;SDS011;59638;52.126;5.434;2023-04-19T09:14:18;1.48;;;0.22;;
71790;SDS011;59638;52.126;5.434;2023-04-19T09:16:46;0.43;;;0.10;;
71790;SDS011;59638;52.126;5.434;2023-04-19T09:19:12;2.30;;;0.20;;
71790;SDS011;59638;52.126;5.434;2023-04-19T09:21:49;2.38;;;0.20;;
71790;SDS011;59638;52.126;5.434;2023-04-19T09:24:18;0.88;;;0.20;;
71790;SDS011;59638;52.126;5.434;2023-04-19T09:26:53;1.55;;;0.20;;
71790;SDS011;59638;52.126;5.434;2023-04-19T09:29:20;1.30;;;0.20;;
71790;SDS011;59638;52.126;5.434;2023-04-19T09:31:55;0.73;;;0.20;;
71790;SDS011;59638;52.126;5.434;2023-04-19T09:34:23;0.82;;;0.20;;
71790;SDS011;59638;52.126;5.434;2023-04-19T09:36:49;0.63;;;0.20;;
71790;SDS011;59638;52.126;5.434;2023-04-19T09:39:30;1.65;;;0.30;;
71790;SDS011;59638;52.126;5.434;2023-04-19T09:41:57;2.60;;;0.37;;
71790;SDS011;59638;52.126;5.434;2023-04-19T09:44:24;1.98;;;0.22;;
71790;SDS011;59638;52.126;5.434;2023-04-19T09:46:53;1.40;;;0.20;;
71790;SDS011;59638;52.126;5.434;2023-04-19T09:49:21;0.75;;;0.20;;
71790;SDS011;59638;52.126;5.434;2023-04-19T09:52:06;0.95;;;0.20;;
71790;SDS011;59638;52.126;5.434;2023-04-19T09:54:35;0.90;;;0.30;;
71790;SDS011;59638;52.126;5.434;2023-04-19T09:57:02;1.70;;;0.50;;
71790;SDS011;59638;52.126;5.434;2023-04-19T09:59:29;1.80;;;0.43;;
71790;SDS011;59638;52.126;5.434;2023-04-19T10:01:56;0.85;;;0.20;;
71790;SDS011;59638;52.126;5.434;2023-04-19T10:04:24;2.47;;;0.20;;
71790;SDS011;59638;52.126;5.434;2023-04-19T10:07:12;0.80;;;0.20;;
71790;SDS011;59638;52.126;5.434;2023-04-19T10:09:41;0.70;;;0.28;;
71790;SDS011;59638;52.126;5.434;2023-04-19T10:12:19;0.50;;;0.20;;
71790;SDS011;59638;52.126;5.434;2023-04-19T10:14:56;1.58;;;0.20;;
71790;SDS011;59638;52.126;5.434;2023-04-19T10:17:22;1.42;;;0.45;;
71790;SDS011;59638;52.126;5.434;2023-04-19T10:20:33;0.63;;;0.20;;
71790;SDS011;59638;52.126;5.434;2023-04-19T10:22:46;0.55;;;0.20;;
71790;SDS011;59638;52.126;5.434;2023-04-19T10:25:13;0.80;;;0.20;;
71790;SDS011;59638;52.126;5.434;2023-04-19T10:27:41;0.85;;;0.40;;
71790;SDS011;59638;52.126;5.434;2023-04-19T10:32:53;1.33;;;0.20;;
71790;SDS011;59638;52.126;5.434;2023-04-19T10:35:22;0.77;;;0.20;;
71790;SDS011;59638;52.126;5.434;2023-04-19T10:43:27;0.68;;;0.20;;
71790;SDS011;59638;52.126;5.434;2023-04-19T10:48:55;0.40;;;0.10;;
71790;SDS011;59638;52.126;5.434;2023-04-19T10:51:25;0.88;;;0.20;;
71790;SDS011;59638;52.126;5.434;2023-04-19T10:53:56;0.70;;;0.20;;
71790;SDS011;59638;52.126;5.434;2023-04-19T11:01:33;1.00;;;0.28;;
71790;SDS011;59638;52.126;5.434;2023-04-19T11:04:02;0.63;;;0.30;;
71790;SDS011;59638;52.126;5.434;2023-04-19T11:06:29;1.05;;;0.28;;
71790;SDS011;59638;52.126;5.434;2023-04-19T11:08:56;1.15;;;0.60;;
71790;SDS011;59638;52.126;5.434;2023-04-19T11:11:22;1.77;;;0.30;;
71790;SDS011;59638;52.126;5.434;2023-04-19T11:13:50;1.15;;;0.20;;
71790;SDS011;59638;52.126;5.434;2023-04-19T11:16:20;1.63;;;0.38;;
71790;SDS011;59638;52.126;5.434;2023-04-19T11:19:03;1.13;;;0.30;;
71790;SDS011;59638;52.126;5.434;2023-04-19T11:21:29;1.10;;;0.40;;
71790;SDS011;59638;52.126;5.434;2023-04-19T11:24:07;1.47;;;0.30;;
71790;SDS011;59638;52.126;5.434;2023-04-19T11:26:34;1.45;;;0.20;;
71790;SDS011;59638;52.126;5.434;2023-04-19T11:29:01;0.60;;;0.30;;
71790;SDS011;59638;52.126;5.434;2023-04-19T11:31:27;0.60;;;0.28;;
71790;SDS011;59638;52.126;5.434;2023-04-19T11:33:54;0.70;;;0.40;;
71790;SDS011;59638;52.126;5.434;2023-04-19T11:36:23;2.13;;;0.40;;
71790;SDS011;59638;52.126;5.434;2023-04-19T11:38:50;2.72;;;0.30;;
71790;SDS011;59638;52.126;5.434;2023-04-19T11:41:17;0.98;;;0.38;;
71790;SDS011;59638;52.126;5.434;2023-04-19T11:43:44;1.13;;;0.15;;
71790;SDS011;59638;52.126;5.434;2023-04-19T11:46:12;1.85;;;0.40;;
71790;SDS011;59638;52.126;5.434;2023-04-19T11:48:48;3.30;;;0.20;;
71790;SDS011;59638;52.126;5.434;2023-04-19T11:51:17;0.93;;;0.20;;
71790;SDS011;59638;52.126;5.434;2023-04-19T11:53:44;3.65;;;0.30;;
71790;SDS011;59638;52.126;5.434;2023-04-19T11:56:11;1.15;;;0.30;;
71790;SDS011;59638;52.126;5.434;2023-04-19T11:58:40;1.13;;;0.30;;
71790;SDS011;59638;52.126;5.434;2023-04-19T12:01:20;1.03;;;0.30;;
71790;SDS011;59638;52.126;5.434;2023-04-19T12:03:47;1.45;;;0.30;;
71790;SDS011;59638;52.126;5.434;2023-04-19T12:06:29;1.08;;;0.30;;
71790;SDS011;59638;52.126;5.434;2023-04-19T12:08:58;0.85;;;0.20;;
71790;SDS011;59638;52.126;5.434;2023-04-19T12:11:27;1.88;;;0.73;;
71790;SDS011;59638;52.126;5.434;2023-04-19T12:14:08;2.70;;;0.50;;
71790;SDS011;59638;52.126;5.434;2023-04-19T12:16:36;0.93;;;0.40;;
71790;SDS011;59638;52.126;5.434;2023-04-19T12:19:10;6.57;;;0.52;;
71790;SDS011;59638;52.126;5.434;2023-04-19T12:21:40;1.63;;;0.40;;
71790;SDS011;59638;52.126;5.434;2023-04-19T12:24:07;2.55;;;0.60;;
71790;SDS011;59638;52.126;5.434;2023-04-19T12:26:34;0.77;;;0.30;;
71790;SDS011;59638;52.126;5.434;2023-04-19T12:29:01;1.83;;;0.50;;
71790;SDS011;59638;52.126;5.434;2023-04-19T12:31:31;3.03;;;0.60;;
71790;SDS011;59638;52.126;5.434;2023-04-19T12:33:58;1.25;;;0.30;;
71790;SDS011;59638;52.126;5.434;2023-04-19T12:36:25;1.00;;;0.40;;
71790;SDS011;59638;52.126;5.434;2023-04-19T12:38:51;3.37;;;0.30;;
71790;SDS011;59638;52.126;5.434;2023-04-19T12:41:18;1.20;;;0.30;;
71790;SDS011;59638;52.126;5.434;2023-04-19T12:43:44;1.90;;;0.32;;
71790;SDS011;59638;52.126;5.434;2023-04-19T12:46:10;3.95;;;0.55;;
71790;SDS011;59638;52.126;5.434;2023-04-19T12:48:37;1.60;;;0.57;;
71790;SDS011;59638;52.126;5.434;2023-04-19T12:51:03;1.23;;;0.43;;
71790;SDS011;59638;52.126;5.434;2023-04-19T12:53:30;0.52;;;0.20;;
71790;SDS011;59638;52.126;5.434;2023-04-19T12:55:57;3.45;;;0.60;;
71790;SDS011;59638;52.126;5.434;2023-04-19T12:58:23;2.63;;;0.50;;
71790;SDS011;59638;52.126;5.434;2023-04-19T13:00:50;3.58;;;1.00;;
71790;SDS011;59638;52.126;5.434;2023-04-19T13:03:16;2.97;;;0.50;;
71790;SDS011;59638;52.126;5.434;2023-04-19T13:05:43;1.55;;;0.40;;
71790;SDS011;59638;52.126;5.434;2023-04-19T13:08:09;1.15;;;0.40;;
71790;SDS011;59638;52.126;5.434;2023-04-19T13:10:35;2.10;;;0.40;;
71790;SDS011;59638;52.126;5.434;2023-04-19T13:13:02;1.17;;;0.52;;
71790;SDS011;59638;52.126;5.434;2023-04-19T13:15:28;1.43;;;0.97;;
71790;SDS011;59638;52.126;5.434;2023-04-19T13:17:55;3.55;;;0.20;;
71790;SDS011;59638;52.126;5.434;2023-04-19T13:20:22;4.03;;;1.30;;
71790;SDS011;59638;52.126;5.434;2023-04-19T13:22:48;1.33;;;0.35;;
71790;SDS011;59638;52.126;5.434;2023-04-19T13:25:14;1.20;;;0.50;;
71790;SDS011;59638;52.126;5.434;2023-04-19T13:27:41;1.13;;;0.50;;
71790;SDS011;59638;52.126;5.434;2023-04-19T13:30:07;4.18;;;0.50;;
71790;SDS011;59638;52.126;5.434;2023-04-19T13:32:34;2.15;;;0.30;;
71790;SDS011;59638;52.126;5.434;2023-04-19T13:35:00;1.13;;;0.30;;
71790;SDS011;59638;52.126;5.434;2023-04-19T13:37:27;1.98;;;0.75;;
71790;SDS011;59638;52.126;5.434;2023-04-19T13:39:53;3.07;;;0.40;;
71790;SDS011;59638;52.126;5.434;2023-04-19T13:42:36;0.60;;;0.28;;
71790;SDS011;59638;52.126;5.434;2023-04-19T13:45:02;1.05;;;0.50;;
71790;SDS011;59638;52.126;5.434;2023-04-19T13:47:29;1.77;;;0.30;;
71790;SDS011;59638;52.126;5.434;2023-04-19T13:49:56;0.73;;;0.22;;
71790;SDS011;59638;52.126;5.434;2023-04-19T13:52:22;1.33;;;0.37;;
71790;SDS011;59638;52.126;5.434;2023-04-19T13:54:48;2.63;;;0.73;;
71790;SDS011;59638;52.126;5.434;2023-04-19T13:57:15;1.08;;;0.20;;
71790;SDS011;59638;52.126;5.434;2023-04-19T13:59:41;0.43;;;0.20;;
71790;SDS011;59638;52.126;5.434;2023-04-19T14:02:08;0.45;;;0.20;;
71790;SDS011;59638;52.126;5.434;2023-04-19T14:04:34;0.50;;;0.10;;
71790;SDS011;59638;52.126;5.434;2023-04-19T14:07:01;0.68;;;0.20;;
71790;SDS011;59638;52.126;5.434;2023-04-19T14:09:27;1.25;;;0.60;;
71790;SDS011;59638;52.126;5.434;2023-04-19T14:11:53;1.70;;;0.40;;
71790;SDS011;59638;52.126;5.434;2023-04-19T14:14:20;1.00;;;0.22;;
71790;SDS011;59638;52.126;5.434;2023-04-19T14:16:46;0.60;;;0.20;;
71790;SDS011;59638;52.126;5.434;2023-04-19T14:19:13;1.20;;;0.30;;
71790;SDS011;59638;52.126;5.434;2023-04-19T14:21:39;0.85;;;0.20;;
71790;SDS011;59638;52.126;5.434;2023-04-19T14:24:06;0.32;;;0.10;;
71790;SDS011;59638;52.126;5.434;2023-04-19T14:26:33;0.90;;;0.20;;
71790;SDS011;59638;52.126;5.434;2023-04-19T14:28:59;5.27;;;0.40;;
71790;SDS011;59638;52.126;5.434;2023-04-19T14:31:25;1.73;;;0.50;;
71790;SDS011;59638;52.126;5.434;2023-04-19T14:33:52;0.75;;;0.30;;
71790;SDS011;59638;52.126;5.434;2023-04-19T14:36:18;3.65;;;0.40;;
71790;SDS011;59638;52.126;5.434;2023-04-19T14:38:44;1.80;;;0.28;;
71790;SDS011;59638;52.126;5.434;2023-04-19T14:41:11;2.87;;;0.30;;
71790;SDS011;59638;52.126;5.434;2023-04-19T14:43:37;1.75;;;0.40;;
71790;SDS011;59638;52.126;5.434;2023-04-19T14:46:03;1.33;;;0.30;;
71790;SDS011;59638;52.126;5.434;2023-04-19T14:48:30;1.58;;;0.20;;
71790;SDS011;59638;52.126;5.434;2023-04-19T14:50:56;4.05;;;0.30;;
71790;SDS011;59638;52.126;5.434;2023-04-19T14:53:23;0.70;;;0.30;;
71790;SDS011;59638;52.126;5.434;2023-04-19T14:55:49;0.90;;;0.30;;
71790;SDS011;59638;52.126;5.434;2023-04-19T14:58:16;2.70;;;0.40;;
71790;SDS011;59638;52.126;5.434;2023-04-19T15:00:42;4.32;;;0.45;;
71790;SDS011;59638;52.126;5.434;2023-04-19T15:03:09;1.00;;;0.20;;
71790;SDS011;59638;52.126;5.434;2023-04-19T15:05:36;1.00;;;0.47;;
71790;SDS011;59638;52.126;5.434;2023-04-19T15:08:02;1.05;;;0.45;;